createdAt,value
2019-05-01T00:01:38.463Z,100443.20
2019-05-01T00:04:25.709Z,100445.98
2019-05-01T00:06:54.272Z,100444.53
2019-05-01T00:09:21.006Z,100443.70
2019-05-01T00:11:47.726Z,100446.02
2019-05-01T00:14:14.470Z,100441.63
2019-05-01T00:16:41.240Z,100443.93
2019-05-01T00:19:08.172Z,100437.22
2019-05-01T00:21:34.953Z,100431.93
2019-05-01T00:24:01.708Z,100432.92
2019-05-01T00:26:28.453Z,100432.20
2019-05-01T00:28:55.190Z,100426.81
2019-05-01T00:31:21.911Z,100426.98
2019-05-01T00:33:48.657Z,100423.50
2019-05-01T00:36:15.410Z,100421.03
2019-05-01T00:38:42.166Z,100421.06
2019-05-01T00:41:08.890Z,100420.59
2019-05-01T00:43:35.622Z,100417.48
2019-05-01T00:46:02.367Z,100419.56
2019-05-01T00:48:29.198Z,100413.01
2019-05-01T00:50:55.934Z,100410.00
2019-05-01T00:53:22.658Z,100404.97
2019-05-01T00:55:57.290Z,100409.83
2019-05-01T00:58:30.742Z,100404.26
2019-05-01T01:01:03.219Z,100407.73
2019-05-01T01:03:29.937Z,100402.28
2019-05-01T01:05:56.674Z,100408.00
2019-05-01T01:08:23.397Z,100407.19
2019-05-01T01:10:50.142Z,100404.58
2019-05-01T01:13:16.870Z,100403.49
2019-05-01T01:15:43.653Z,100402.00
2019-05-01T01:18:10.383Z,100398.83
2019-05-01T01:20:37.138Z,100400.13
2019-05-01T01:23:03.886Z,100398.10
2019-05-01T01:25:30.618Z,100397.43
2019-05-01T01:27:57.356Z,100405.63
2019-05-01T01:30:24.087Z,100405.16
2019-05-01T01:32:50.827Z,100400.08
2019-05-01T01:35:17.574Z,100405.86
2019-05-01T01:37:44.319Z,100406.89
2019-05-01T01:40:11.068Z,100409.67
2019-05-01T01:42:37.831Z,100406.20
2019-05-01T01:45:14.301Z,100405.83
2019-05-01T01:47:46.746Z,100397.08
2019-05-01T01:50:13.487Z,100398.38
2019-05-01T01:52:40.216Z,100402.23
2019-05-01T01:55:06.965Z,100397.38
2019-05-01T01:57:33.698Z,100399.16
2019-05-01T02:00:00.459Z,100393.27
2019-05-01T02:02:42.470Z,100385.41
2019-05-01T02:05:11.673Z,100385.46
2019-05-01T02:07:38.485Z,100385.89
2019-05-01T02:10:05.571Z,100390.94
2019-05-01T02:12:32.291Z,100386.37
2019-05-01T02:14:59.010Z,100398.75
2019-05-01T02:17:25.743Z,100394.27
2019-05-01T02:19:52.470Z,100386.14
2019-05-01T02:22:19.243Z,100396.45
2019-05-01T02:24:45.967Z,100391.43
2019-05-01T02:27:16.366Z,100392.87
2019-05-01T02:29:46.222Z,100391.33
2019-05-01T02:32:13.919Z,100389.66
2019-05-01T02:34:40.630Z,100388.69
2019-05-01T02:37:07.375Z,100388.66
2019-05-01T02:39:34.103Z,100388.22
2019-05-01T02:42:00.963Z,100383.30
2019-05-01T02:44:29.131Z,100378.25
2019-05-01T02:46:55.866Z,100386.33
2019-05-01T02:49:32.998Z,100383.87
2019-05-01T02:52:00.143Z,100381.97
2019-05-01T02:54:26.859Z,100376.30
2019-05-01T02:56:57.703Z,100380.14
2019-05-01T02:59:24.744Z,100383.75
2019-05-01T03:01:51.462Z,100382.91
2019-05-01T03:04:18.202Z,100381.98
2019-05-01T03:06:44.955Z,100378.59
2019-05-01T03:09:11.683Z,100375.66
2019-05-01T03:11:38.846Z,100381.54
2019-05-01T03:14:06.401Z,100386.92
2019-05-01T03:16:33.126Z,100383.61
2019-05-01T03:18:59.870Z,100377.75
2019-05-01T03:21:33.475Z,100378.84
2019-05-01T03:24:04.095Z,100381.28
2019-05-01T03:26:30.839Z,100378.33
2019-05-01T03:28:57.582Z,100366.89
2019-05-01T03:31:24.371Z,100380.89
2019-05-01T03:33:51.089Z,100380.44
2019-05-01T03:36:17.871Z,100377.48
2019-05-01T03:38:44.585Z,100374.21
2019-05-01T03:41:11.326Z,100372.27
2019-05-01T03:43:38.744Z,100372.48
2019-05-01T03:46:05.467Z,100375.20
2019-05-01T03:48:32.313Z,100378.50
2019-05-01T03:50:59.043Z,100370.86
2019-05-01T03:53:25.787Z,100375.92
2019-05-01T03:55:52.535Z,100379.20
2019-05-01T03:58:19.284Z,100372.63
2019-05-01T04:00:56.354Z,100370.40
2019-05-01T04:03:26.316Z,100371.22
2019-05-01T04:05:53.039Z,100362.77
2019-05-01T04:08:19.772Z,100367.92
2019-05-01T04:10:46.567Z,100365.69
2019-05-01T04:13:13.426Z,100369.55
2019-05-01T04:15:40.153Z,100363.47
2019-05-01T04:18:06.895Z,100365.70
2019-05-01T04:20:33.615Z,100371.32
2019-05-01T04:23:00.895Z,100377.20
2019-05-01T04:25:27.699Z,100376.27
2019-05-01T04:27:58.533Z,100378.48
2019-05-01T04:30:25.714Z,100381.05
2019-05-01T04:32:53.420Z,100387.75
2019-05-01T04:35:23.623Z,100384.48
2019-05-01T04:37:52.651Z,100389.14
2019-05-01T04:40:19.607Z,100386.48
2019-05-01T04:42:46.365Z,100388.31
2019-05-01T04:45:13.095Z,100387.92
2019-05-01T04:47:39.843Z,100384.67
2019-05-01T04:50:06.684Z,100387.28
2019-05-01T04:52:33.448Z,100388.84
2019-05-01T04:55:00.167Z,100388.11
2019-05-01T04:57:26.959Z,100388.06
2019-05-01T04:59:53.687Z,100390.13
2019-05-01T05:02:30.269Z,100383.00
2019-05-01T05:04:56.994Z,100383.62
2019-05-01T05:07:23.742Z,100388.13
2019-05-01T05:09:50.463Z,100384.89
2019-05-01T05:12:21.718Z,100382.58
2019-05-01T05:14:51.234Z,100383.77
2019-05-01T05:17:20.622Z,100383.92
2019-05-01T05:19:47.365Z,100382.91
2019-05-01T05:22:16.495Z,100387.97
2019-05-01T05:24:40.839Z,100383.92
2019-05-01T05:27:07.550Z,100386.86
2019-05-01T05:29:34.278Z,100384.89
2019-05-01T05:32:01.012Z,100385.14
2019-05-01T05:34:27.767Z,100388.75
2019-05-01T05:36:54.586Z,100392.34
2019-05-01T05:39:26.018Z,100394.99
2019-05-01T05:41:52.742Z,100393.60
2019-05-01T05:44:19.517Z,100394.25
2019-05-01T05:46:46.270Z,100398.06
2019-05-01T05:49:13.017Z,100399.91
2019-05-01T05:51:46.701Z,100408.66
2019-05-01T05:54:33.974Z,100399.58
2019-05-01T05:57:04.617Z,100399.83
2019-05-01T05:59:31.434Z,100387.80
2019-05-01T06:02:09.602Z,100391.42
2019-05-01T06:04:45.448Z,100392.22
2019-05-01T06:07:33.137Z,100390.89
2019-05-01T06:10:05.846Z,100390.94
2019-05-01T06:12:41.648Z,100386.73
2019-05-01T06:15:15.102Z,100389.02
2019-05-01T06:17:46.778Z,100387.31
2019-05-01T06:20:20.912Z,100393.47
2019-05-01T06:22:51.494Z,100392.29
2019-05-01T06:25:25.293Z,100393.34
2019-05-01T06:27:50.423Z,100393.73
2019-05-01T06:30:16.266Z,100380.28
2019-05-01T06:32:42.994Z,100374.00
2019-05-01T06:35:09.725Z,100379.63
2019-05-01T06:37:55.912Z,100385.54
2019-05-01T06:40:22.553Z,100379.95
2019-05-01T06:42:50.133Z,100389.47
2019-05-01T06:45:16.873Z,100389.30
2019-05-01T06:47:47.654Z,100382.58
2019-05-01T06:50:19.737Z,100388.94
2019-05-01T06:52:46.454Z,100387.47
2019-05-01T06:55:13.214Z,100391.95
2019-05-01T06:57:43.883Z,100389.20
2019-05-01T07:00:08.088Z,100392.59
2019-05-01T07:02:35.103Z,100397.84
2019-05-01T07:05:01.080Z,100389.84
2019-05-01T07:07:27.857Z,100382.81
2019-05-01T07:09:54.621Z,100396.04
2019-05-01T07:12:24.046Z,100390.64
2019-05-01T07:14:50.870Z,100398.15
2019-05-01T07:17:15.327Z,100399.45
2019-05-01T07:19:53.111Z,100398.99
2019-05-01T07:22:19.844Z,100397.05
2019-05-01T07:24:49.016Z,100393.13
2019-05-01T07:27:13.298Z,100391.48
2019-05-01T07:29:44.773Z,100390.14
2019-05-01T07:32:07.558Z,100395.91
2019-05-01T07:34:33.521Z,100386.41
2019-05-01T07:37:00.278Z,100395.58
2019-05-01T07:39:26.990Z,100378.03
2019-05-01T07:41:53.918Z,100384.94
2019-05-01T07:44:30.107Z,100377.67
2019-05-01T07:47:06.094Z,100381.41
2019-05-01T07:49:55.025Z,100378.45
2019-05-01T07:52:21.701Z,100375.23
2019-05-01T07:54:48.419Z,100376.45
2019-05-01T07:57:15.178Z,100368.86
2019-05-01T07:59:41.898Z,100376.58
2019-05-01T08:02:10.594Z,100370.88
2019-05-01T08:04:37.372Z,100375.20
2019-05-01T08:07:04.121Z,100382.14
2019-05-01T08:09:30.847Z,100376.84
2019-05-01T08:11:57.600Z,100382.34
2019-05-01T08:14:24.333Z,100380.59
2019-05-01T08:16:51.080Z,100386.19
2019-05-01T08:19:21.453Z,100382.40
2019-05-01T08:21:56.877Z,100375.50
2019-05-01T08:24:23.047Z,100377.58
2019-05-01T08:26:47.350Z,100386.33
2019-05-01T08:29:42.175Z,100389.45
2019-05-01T08:32:16.229Z,100382.20
2019-05-01T08:34:49.231Z,100381.41
2019-05-01T08:37:09.790Z,100379.39
2019-05-01T08:39:39.678Z,100375.70
2019-05-01T08:42:07.050Z,100372.72
2019-05-01T08:44:30.843Z,100374.56
2019-05-01T08:47:01.881Z,100369.67
2019-05-01T08:49:50.642Z,100377.07
2019-05-01T08:52:14.998Z,100368.87
2019-05-01T08:54:41.731Z,100372.30
2019-05-01T08:57:08.478Z,100372.30
2019-05-01T08:59:35.202Z,100375.54
2019-05-01T09:02:09.586Z,100374.56
2019-05-01T09:04:30.443Z,100365.79
2019-05-01T09:06:55.514Z,100376.79
2019-05-01T09:09:22.246Z,100365.98
2019-05-01T09:11:48.986Z,100362.52
2019-05-01T09:14:15.716Z,100359.67
2019-05-01T09:16:42.525Z,100351.70
2019-05-01T09:19:09.444Z,100351.81
2019-05-01T09:21:37.912Z,100342.75
2019-05-01T09:24:02.921Z,100347.73
2019-05-01T09:26:50.307Z,100354.70
2019-05-01T09:29:19.694Z,100345.81
2019-05-01T09:31:46.628Z,100334.12
2019-05-01T09:34:14.149Z,100333.05
2019-05-01T09:36:40.139Z,100324.41
2019-05-01T09:39:06.965Z,100324.27
2019-05-01T09:41:38.538Z,100322.36
2019-05-01T09:44:01.314Z,100332.33
2019-05-01T09:46:29.123Z,100336.74
2019-05-01T09:48:58.189Z,100324.42
2019-05-01T09:51:29.150Z,100319.30
2019-05-01T09:54:09.883Z,100321.87
2019-05-01T09:56:33.961Z,100324.13
2019-05-01T09:59:00.762Z,100323.98
2019-05-01T10:01:31.684Z,100314.33
2019-05-01T10:03:54.832Z,100307.12
2019-05-01T10:06:20.999Z,100307.63
2019-05-01T10:08:47.844Z,100314.45
2019-05-01T10:11:14.674Z,100299.52
2019-05-01T10:13:41.521Z,100294.11
2019-05-01T10:16:08.358Z,100296.14
2019-05-01T10:18:35.122Z,100290.49
2019-05-01T10:21:01.934Z,100288.76
2019-05-01T10:23:28.709Z,100287.44
2019-05-01T10:25:55.525Z,100273.84
2019-05-01T10:28:32.001Z,100274.33
2019-05-01T10:31:06.995Z,100284.15
2019-05-01T10:33:38.351Z,100265.58
2019-05-01T10:36:18.274Z,100253.59
2019-05-01T10:38:39.832Z,100258.45
2019-05-01T10:41:04.254Z,100247.07
2019-05-01T10:43:30.342Z,100242.92
2019-05-01T10:45:57.106Z,100223.77
2019-05-01T10:48:23.835Z,100224.98
2019-05-01T10:50:50.675Z,100223.08
2019-05-01T10:53:17.410Z,100220.20
2019-05-01T10:55:44.159Z,100218.55
2019-05-01T10:58:12.676Z,100212.69
2019-05-01T11:00:37.658Z,100216.66
2019-05-01T11:03:04.381Z,100198.86
2019-05-01T11:05:31.121Z,100189.18
2019-05-01T11:07:57.927Z,100190.50
2019-05-01T11:10:24.733Z,100180.84
2019-05-01T11:12:51.441Z,100181.80
2019-05-01T11:15:18.222Z,100165.69
2019-05-01T11:17:44.951Z,100176.37
2019-05-01T11:20:11.766Z,100163.48
2019-05-01T11:22:38.501Z,100164.73
2019-05-01T11:25:05.465Z,100165.17
2019-05-01T11:27:32.194Z,100173.66
2019-05-01T11:29:58.955Z,100161.89
2019-05-01T11:32:31.449Z,100171.78
2019-05-01T11:35:04.923Z,100158.50
2019-05-01T11:37:51.258Z,100155.11
2019-05-01T11:40:24.961Z,100162.56
2019-05-01T11:42:51.686Z,100163.80
2019-05-01T11:45:18.478Z,100153.70
2019-05-01T11:47:45.205Z,100154.84
2019-05-01T11:50:11.962Z,100146.40
2019-05-01T11:52:38.693Z,100145.84
2019-05-01T11:55:05.546Z,100144.94
2019-05-01T11:57:32.278Z,100149.56
2019-05-01T11:59:59.027Z,100160.17
2019-05-01T12:02:25.766Z,100164.79
2019-05-01T12:04:52.509Z,100154.27
2019-05-01T12:07:19.241Z,100153.11
2019-05-01T12:09:45.994Z,100148.18
2019-05-01T12:12:12.738Z,100132.69
2019-05-01T12:14:39.469Z,100135.69
2019-05-01T12:17:12.923Z,100140.75
2019-05-01T12:19:39.678Z,100148.67
2019-05-01T12:22:06.428Z,100148.30
2019-05-01T12:24:33.186Z,100133.71
2019-05-01T12:26:59.951Z,100130.62
2019-05-01T12:29:26.685Z,100120.31
2019-05-01T12:31:53.436Z,100114.44
2019-05-01T12:34:20.158Z,100124.92
2019-05-01T12:36:46.956Z,100109.97
2019-05-01T12:39:15.434Z,100121.27
2019-05-01T12:41:47.095Z,100118.28
2019-05-01T12:44:13.810Z,100113.55
2019-05-01T12:46:44.974Z,100098.95
2019-05-01T12:49:11.911Z,100090.42
2019-05-01T12:51:38.614Z,100100.89
2019-05-01T12:54:09.378Z,100097.06
2019-05-01T12:56:41.454Z,100089.78
2019-05-01T12:59:08.216Z,100083.03
2019-05-01T13:01:34.957Z,100085.30
2019-05-01T13:04:01.794Z,100083.73
2019-05-01T13:06:28.529Z,100077.13
2019-05-01T13:08:55.254Z,100070.41
2019-05-01T13:11:21.989Z,100055.00
2019-05-01T13:13:48.715Z,100063.30
2019-05-01T13:16:15.465Z,100051.91
2019-05-01T13:18:42.190Z,100064.55
2019-05-01T13:21:09.021Z,100052.81
2019-05-01T13:23:35.826Z,100050.88
2019-05-01T13:26:09.002Z,100037.17
2019-05-01T13:28:48.857Z,100038.48
2019-05-01T13:31:23.158Z,100036.26
2019-05-01T13:33:49.898Z,100029.36
2019-05-01T13:36:17.173Z,100034.56
2019-05-01T13:38:43.414Z,100037.33
2019-05-01T13:41:10.201Z,100029.95
2019-05-01T13:43:36.953Z,100036.82
2019-05-01T13:46:03.705Z,100029.34
2019-05-01T13:48:30.565Z,100018.46
2019-05-01T13:50:57.352Z,100017.64
2019-05-01T13:53:24.110Z,100013.96
2019-05-01T13:55:50.861Z,100011.89
2019-05-01T13:58:17.622Z,100004.27
2019-05-01T14:00:44.374Z,99995.88
2019-05-01T14:03:11.126Z,99980.88
2019-05-01T14:05:37.858Z,99986.53
2019-05-01T14:08:04.612Z,99980.80
2019-05-01T14:10:31.390Z,99987.20
2019-05-01T14:12:58.510Z,99970.98
2019-05-01T14:15:25.275Z,99969.56
2019-05-01T14:17:52.022Z,99968.78
2019-05-01T14:20:28.080Z,99968.22
2019-05-01T14:22:58.324Z,99966.95
2019-05-01T14:25:25.047Z,99962.78
2019-05-01T14:27:51.804Z,99965.37
2019-05-01T14:30:18.597Z,99953.86
2019-05-01T14:32:45.337Z,99948.39
2019-05-01T14:35:12.094Z,99943.83
2019-05-01T14:37:38.899Z,99939.38
2019-05-01T14:40:05.631Z,99931.98
2019-05-01T14:42:32.407Z,99940.69
2019-05-01T14:44:59.240Z,99937.78
2019-05-01T14:47:25.917Z,99931.94
2019-05-01T14:52:27.003Z,99918.37
2019-05-01T14:54:53.746Z,99925.48
2019-05-01T14:57:20.470Z,99920.27
2019-05-01T14:59:47.212Z,99925.13
2019-05-01T15:02:13.975Z,99934.98
2019-05-01T15:04:40.718Z,99921.73
2019-05-01T15:07:07.465Z,99921.05
2019-05-01T15:09:34.222Z,99920.64
2019-05-01T15:12:01.040Z,99914.11
2019-05-01T15:14:37.066Z,99909.92
2019-05-01T15:17:22.794Z,99907.79
2019-05-01T15:19:54.611Z,99911.14
2019-05-01T15:22:21.334Z,99906.33
2019-05-01T15:24:48.078Z,99901.30
2019-05-01T15:27:14.795Z,99899.83
2019-05-01T15:29:41.530Z,99892.17
2019-05-01T15:32:08.259Z,99890.33
2019-05-01T15:34:35.003Z,99886.56
2019-05-01T15:37:01.756Z,99883.67
2019-05-01T15:39:32.626Z,99886.48
2019-05-01T15:42:20.978Z,99892.66
2019-05-01T15:44:47.893Z,99892.47
2019-05-01T15:47:14.438Z,99885.38
2019-05-01T15:49:41.215Z,99873.49
2019-05-01T15:52:08.217Z,99879.62
2019-05-01T15:54:34.967Z,99882.28
2019-05-01T15:57:01.682Z,99878.66
2019-05-01T15:59:28.486Z,99872.77
2019-05-01T16:01:55.326Z,99864.45
2019-05-01T16:04:22.079Z,99873.78
2019-05-01T16:06:48.814Z,99862.38
2019-05-01T16:09:15.600Z,99861.71
2019-05-01T16:11:48.190Z,99859.73
2019-05-01T16:14:14.934Z,99859.77
2019-05-01T16:16:41.659Z,99862.45
2019-05-01T16:19:08.406Z,99870.72
2019-05-01T16:21:35.126Z,99886.19
2019-05-01T16:24:01.990Z,99886.13
2019-05-01T16:26:28.706Z,99883.56
2019-05-01T16:28:55.463Z,99882.97
2019-05-01T16:31:22.197Z,99889.11
2019-05-01T16:33:48.938Z,99890.91
2019-05-01T16:36:15.666Z,99894.97
2019-05-01T16:39:02.942Z,99877.63
2019-05-01T16:41:29.800Z,99877.52
2019-05-01T16:43:56.546Z,99876.89
2019-05-01T16:46:23.297Z,99878.37
2019-05-01T16:48:50.024Z,99875.02
2019-05-01T16:51:16.775Z,99873.66
2019-05-01T16:53:43.483Z,99862.72
2019-05-01T16:56:10.258Z,99867.85
2019-05-01T16:58:36.986Z,99855.73
2019-05-01T17:01:05.329Z,99847.33
2019-05-01T17:03:42.226Z,99843.50
2019-05-01T17:06:14.165Z,99847.55
2019-05-01T17:08:51.658Z,99837.49
2019-05-01T17:11:20.638Z,99842.13
2019-05-01T17:13:47.374Z,99834.36
2019-05-01T17:16:14.101Z,99840.88
2019-05-01T17:18:40.838Z,99825.69
2019-05-01T17:21:07.582Z,99822.33
2019-05-01T17:23:34.330Z,99820.20
2019-05-01T17:26:01.059Z,99837.55
2019-05-01T17:28:27.826Z,99833.14
2019-05-01T17:30:56.914Z,99833.13
2019-05-01T17:33:23.714Z,99823.98
2019-05-01T17:35:50.442Z,99834.23
2019-05-01T17:38:17.206Z,99825.18
2019-05-01T17:40:47.469Z,99829.67
2019-05-01T17:43:13.567Z,99835.34
2019-05-01T17:45:37.983Z,99827.84
2019-05-01T17:48:04.722Z,99832.14
2019-05-01T17:50:31.511Z,99844.41
2019-05-01T17:52:58.239Z,99838.21
2019-05-01T17:55:25.002Z,99838.31
2019-05-01T17:57:51.765Z,99844.09
2019-05-01T18:00:33.485Z,99850.17
2019-05-01T18:03:05.214Z,99847.91
2019-05-01T18:05:47.750Z,99849.45
2019-05-01T18:08:14.485Z,99856.30
2019-05-01T18:10:41.240Z,99874.13
2019-05-01T18:13:08.171Z,99890.72
2019-05-01T18:15:34.926Z,99885.56
2019-05-01T18:18:01.670Z,99882.39
2019-05-01T18:20:28.428Z,99894.20
2019-05-01T18:23:12.265Z,99893.52
2019-05-01T18:25:41.438Z,99899.81
2019-05-01T18:28:20.130Z,99914.81
2019-05-01T18:30:46.898Z,99905.22
2019-05-01T18:33:13.621Z,99911.09
2019-05-01T18:35:40.367Z,99913.64
2019-05-01T18:38:14.465Z,99916.36
2019-05-01T18:40:45.806Z,99921.81
2019-05-01T18:43:12.531Z,99929.47
2019-05-01T18:45:44.294Z,99927.04
2019-05-01T18:48:11.023Z,99928.28
2019-05-01T18:50:37.770Z,99931.89
2019-05-01T18:53:06.791Z,99931.28
2019-05-01T18:55:31.527Z,99927.90
2019-05-01T18:57:58.067Z,99938.20
2019-05-01T19:00:24.817Z,99936.62
2019-05-01T19:02:51.554Z,99939.16
2019-05-01T19:05:18.309Z,99939.64
2019-05-01T19:07:45.042Z,99951.02
2019-05-01T19:10:11.786Z,99946.64
2019-05-01T19:12:38.525Z,99945.81
2019-05-01T19:15:05.852Z,99938.17
2019-05-01T19:17:32.014Z,99946.77
2019-05-01T19:19:58.758Z,99936.84
2019-05-01T19:22:25.483Z,99942.72
2019-05-01T19:24:52.212Z,99938.57
2019-05-01T19:27:20.842Z,99945.53
2019-05-01T19:29:45.702Z,99943.53
2019-05-01T19:32:12.427Z,99947.00
2019-05-01T19:34:39.171Z,99942.67
2019-05-01T19:37:05.907Z,99941.44
2019-05-01T19:39:43.052Z,99936.78
2019-05-01T19:41:59.394Z,99938.05
2019-05-01T19:44:26.163Z,99939.80
2019-05-01T19:46:52.863Z,99948.45
2019-05-01T19:49:19.619Z,99950.78
2019-05-01T19:51:46.329Z,99944.07
2019-05-01T19:54:13.052Z,99948.42
2019-05-01T19:56:39.791Z,99947.07
2019-05-01T19:59:06.610Z,99944.58
2019-05-01T20:01:33.311Z,99944.63
2019-05-01T20:04:00.043Z,99948.94
2019-05-01T20:06:26.847Z,99951.55
2019-05-01T20:08:53.525Z,99948.41
2019-05-01T20:11:20.266Z,99946.77
2019-05-01T20:13:47.015Z,99941.31
2019-05-01T20:16:13.849Z,99934.69
2019-05-01T20:18:40.578Z,99933.61
2019-05-01T20:21:07.331Z,99930.67
2019-05-01T20:23:34.067Z,99932.48
2019-05-01T20:26:00.814Z,99943.57
2019-05-01T20:28:28.433Z,99934.06
2019-05-01T20:30:54.348Z,99926.53
2019-05-01T20:33:21.114Z,99926.66
2019-05-01T20:35:47.853Z,99923.78
2019-05-01T20:38:14.577Z,99921.64
2019-05-01T20:40:41.318Z,99925.18
2019-05-01T20:43:08.162Z,99922.69
2019-05-01T20:45:34.924Z,99919.48
2019-05-01T20:48:01.718Z,99924.53
2019-05-01T20:50:28.533Z,99926.52
2019-05-01T20:52:55.260Z,99909.44
2019-05-01T20:55:22.018Z,99923.13
2019-05-01T20:57:48.758Z,99925.99
2019-05-01T21:00:16.502Z,99924.55
2019-05-01T21:02:43.157Z,99929.16
2019-05-01T21:05:30.427Z,99922.06
2019-05-01T21:08:03.104Z,99924.35
2019-05-01T21:10:34.361Z,99917.99
2019-05-01T21:12:59.206Z,99924.77
2019-05-01T21:15:26.823Z,99922.38
2019-05-01T21:17:52.670Z,99917.09
2019-05-01T21:20:19.442Z,99923.00
2019-05-01T21:22:46.250Z,99920.83
2019-05-01T21:25:13.819Z,99908.96
2019-05-01T21:27:39.709Z,99916.36
2019-05-01T21:30:06.440Z,99932.30
2019-05-01T21:32:33.966Z,99916.42
2019-05-01T21:34:59.922Z,99920.52
2019-05-01T21:37:26.773Z,99916.14
2019-05-01T21:39:53.845Z,99919.89
2019-05-01T21:42:20.246Z,99909.62
2019-05-01T21:44:46.992Z,99920.05
2019-05-01T21:47:14.044Z,99910.30
2019-05-01T21:49:40.442Z,99911.92
2019-05-01T21:52:07.458Z,99908.82
2019-05-01T21:54:33.910Z,99900.48
2019-05-01T21:57:00.667Z,99910.30
2019-05-01T21:59:27.401Z,99901.47
2019-05-01T22:01:54.137Z,99905.71
2019-05-01T22:04:20.869Z,99904.09
2019-05-01T22:06:51.854Z,99904.89
2019-05-01T22:09:18.450Z,99903.23
2019-05-01T22:11:45.421Z,99912.45
2019-05-01T22:14:15.017Z,99909.69
2019-05-01T22:16:41.754Z,99900.90
2019-05-01T22:19:16.878Z,99895.53
2019-05-01T22:22:03.243Z,99900.09
2019-05-01T22:24:50.529Z,99895.28
2019-05-01T22:27:20.950Z,99892.02
2019-05-01T22:29:52.470Z,99897.08
2019-05-01T22:32:23.022Z,99891.97
2019-05-01T22:34:54.462Z,99885.01
2019-05-01T22:37:21.210Z,99887.78
2019-05-01T22:39:51.214Z,99884.32
2019-05-01T22:42:17.954Z,99889.06
2019-05-01T22:44:44.693Z,99884.48
2019-05-01T22:47:15.005Z,99882.08
2019-05-01T22:49:38.153Z,99881.93
2019-05-01T22:52:04.910Z,99887.22
2019-05-01T22:54:31.646Z,99881.41
2019-05-01T22:56:58.386Z,99877.69
2019-05-01T22:59:25.130Z,99879.22
2019-05-01T23:01:53.105Z,99880.52
2019-05-01T23:04:19.057Z,99876.55
2019-05-01T23:06:45.754Z,99874.38
2019-05-01T23:09:12.786Z,99865.16
2019-05-01T23:11:41.187Z,99874.04
2019-05-01T23:14:08.065Z,99873.71
2019-05-01T23:16:38.874Z,99869.45
2019-05-01T23:19:05.613Z,99871.36
2019-05-01T23:21:32.321Z,99866.65
2019-05-01T23:24:02.045Z,99864.16
2019-05-01T23:26:25.786Z,99862.16
2019-05-01T23:28:52.530Z,99861.66
2019-05-01T23:31:19.546Z,99862.97
2019-05-01T23:33:50.693Z,99857.45
2019-05-01T23:36:22.997Z,99859.18
2019-05-01T23:38:39.730Z,99855.00
2019-05-01T23:41:06.462Z,99847.40
2019-05-01T23:43:33.194Z,99849.98
2019-05-01T23:45:59.917Z,99850.42
2019-05-01T23:48:26.653Z,99847.96
2019-05-01T23:50:53.374Z,99849.88
2019-05-01T23:53:20.123Z,99853.64
2019-05-01T23:55:46.857Z,99845.14
2019-05-01T23:58:13.670Z,99848.21
